Time;durP1;ratioP1;P1;durP2;ratioP2;P2;SDS_P1;SDS_P2;PMS_P1;PMS_P2;Temp;Humidity;BMP_temperature;BMP_pressure;BME280_temperature;BME280_humidity;BME280_pressure;Samples;Min_cycle;Max_cycle;Signal;HPM_P1;HPM_P2
2023/01/13 00:00:47;;;;;;;15.30;4.00;;;;;;;;;;105120;1257;59685;-46
2023/01/13 00:03:13;;;;;;;15.60;4.00;;;;;;;;;;105272;1259;60845;-45
2023/01/13 00:05:40;;;;;;;16.10;4.20;;;;;;;;;;105017;1256;59662;-45
2023/01/13 00:08:07;;;;;;;17.20;5.70;;;;;;;;;;105230;1255;60472;-45
2023/01/13 00:10:34;;;;;;;14.40;4.10;;;;;;;;;;105120;1256;62274;-45
2023/01/13 00:13:00;;;;;;;13.80;5.30;;;;;;;;;;105061;1259;59546;-44
2023/01/13 00:15:27;;;;;;;18.70;6.20;;;;;;;;;;105284;1256;60523;-45
2023/01/13 00:17:54;;;;;;;10.90;5.80;;;;;;;;;;105205;1260;60549;-47
2023/01/13 00:20:21;;;;;;;20.10;5.60;;;;;;;;;;105124;1258;60438;-46
2023/01/13 00:22:48;;;;;;;14.20;6.10;;;;;;;;;;105228;1259;61792;-46
2023/01/13 00:25:14;;;;;;;24.10;7.40;;;;;;;;;;105230;1254;60641;-46
2023/01/13 00:27:41;;;;;;;27.10;6.00;;;;;;;;;;105088;1259;60789;-43
2023/01/13 00:30:08;;;;;;;29.20;7.20;;;;;;;;;;105205;1259;60563;-46
2023/01/13 00:32:34;;;;;;;22.90;6.80;;;;;;;;;;104993;1260;59766;-45
2023/01/13 00:35:02;;;;;;;21.80;6.30;;;;;;;;;;105090;1254;62204;-47
2023/01/13 00:37:29;;;;;;;19.80;6.00;;;;;;;;;;105507;1259;60437;-44
2023/01/13 00:39:56;;;;;;;31.70;8.00;;;;;;;;;;105257;1257;60816;-45
2023/01/13 00:45:09;;;;;;;26.80;7.90;;;;;;;;;;105189;1259;60410;-47
2023/01/13 00:47:35;;;;;;;19.60;6.80;;;;;;;;;;105386;1257;62132;-46
2023/01/13 00:50:02;;;;;;;21.90;7.30;;;;;;;;;;105142;1259;59385;-46
2023/01/13 00:52:30;;;;;;;20.80;7.40;;;;;;;;;;105103;1254;61948;-45
2023/01/13 00:54:57;;;;;;;24.60;8.50;;;;;;;;;;105052;1256;60689;-45
2023/01/13 00:57:24;;;;;;;27.60;8.40;;;;;;;;;;105186;1257;60761;-43
2023/01/13 00:59:50;;;;;;;21.70;7.50;;;;;;;;;;105122;1257;61978;-45
2023/01/13 01:02:17;;;;;;;35.70;7.70;;;;;;;;;;105201;1253;60504;-43
2023/01/13 01:04:44;;;;;;;23.50;7.50;;;;;;;;;;105158;1259;61914;-44
2023/01/13 01:07:10;;;;;;;21.10;5.10;;;;;;;;;;105106;1259;60415;-47
2023/01/13 01:09:38;;;;;;;22.60;7.80;;;;;;;;;;105180;1254;60552;-45
2023/01/13 01:12:05;;;;;;;22.20;7.50;;;;;;;;;;104999;1254;63050;-43
2023/01/13 01:14:31;;;;;;;32.70;7.30;;;;;;;;;;105153;1259;60550;-47
2023/01/13 01:16:58;;;;;;;20.50;6.90;;;;;;;;;;105267;1256;60553;-46
2023/01/13 01:19:25;;;;;;;28.50;7.10;;;;;;;;;;105228;1260;61543;-44
2023/01/13 01:21:53;;;;;;;23.10;7.90;;;;;;;;;;105191;1259;60365;-47
2023/01/13 01:24:20;;;;;;;23.10;8.50;;;;;;;;;;105215;1259;63418;-45
2023/01/13 01:26:47;;;;;;;30.90;9.60;;;;;;;;;;105264;1257;60543;-47
2023/01/13 01:29:14;;;;;;;24.80;8.40;;;;;;;;;;105239;1259;60621;-46
2023/01/13 01:31:41;;;;;;;21.30;8.30;;;;;;;;;;105195;1254;60495;-46
2023/01/13 01:34:08;;;;;;;25.50;8.70;;;;;;;;;;105293;1259;60359;-46
2023/01/13 01:36:35;;;;;;;19.20;8.10;;;;;;;;;;105218;1253;62209;-48
2023/01/13 01:39:02;;;;;;;24.90;8.90;;;;;;;;;;105189;1259;60390;-45
2023/01/13 01:41:30;;;;;;;35.50;9.60;;;;;;;;;;105126;1254;61805;-44
2023/01/13 01:44:05;;;;;;;31.60;8.80;;;;;;;;;;105195;1259;60536;-46
2023/01/13 01:46:42;;;;;;;21.50;7.20;;;;;;;;;;105231;1259;60545;-46
2023/01/13 01:49:17;;;;;;;30.30;7.30;;;;;;;;;;105422;1258;63252;-46
2023/01/13 01:51:44;;;;;;;;;;;;;;;;;;105362;1256;59676;-46
2023/01/13 01:54:12;;;;;;;19.40;6.40;;;;;;;;;;105076;1259;61766;-46
2023/01/13 01:56:38;;;;;;;22.40;8.00;;;;;;;;;;105114;1260;60428;-45
2023/01/13 01:59:05;;;;;;;14.50;5.60;;;;;;;;;;105033;1254;60601;-45
2023/01/13 02:01:32;;;;;;;19.00;6.90;;;;;;;;;;104934;1255;62040;-45
2023/01/13 02:04:00;;;;;;;23.40;6.90;;;;;;;;;;104923;1261;60471;-45
2023/01/13 02:06:27;;;;;;;25.60;7.80;;;;;;;;;;104988;1258;60545;-45
2023/01/13 02:08:54;;;;;;;19.70;6.80;;;;;;;;;;105144;1260;60611;-46
2023/01/13 02:14:13;;;;;;;23.00;7.90;;;;;;;;;;104855;1259;61815;-44
2023/01/13 02:16:41;;;;;;;17.60;7.90;;;;;;;;;;105179;1259;60527;-46
2023/01/13 02:19:23;;;;;;;22.70;7.00;;;;;;;;;;105223;1254;61868;-45
2023/01/13 02:22:09;;;;;;;17.10;5.90;;;;;;;;;;105405;1260;60542;-46
2023/01/13 02:25:08;;;;;;;16.90;5.40;;;;;;;;;;105173;1254;60379;-45
2023/01/13 02:27:47;;;;;;;15.80;6.00;;;;;;;;;;105012;1259;63263;-45
2023/01/13 02:33:09;;;;;;;22.90;5.50;;;;;;;;;;105165;1257;60856;-41
2023/01/13 02:35:44;;;;;;;18.20;5.30;;;;;;;;;;105141;1254;60489;-45
2023/01/13 02:38:10;;;;;;;22.10;5.30;;;;;;;;;;105582;1261;60538;-44
2023/01/13 02:40:49;;;;;;;16.10;5.00;;;;;;;;;;105216;1254;62244;-45
2023/01/13 02:46:14;;;;;;;20.40;5.80;;;;;;;;;;105205;1254;61698;-47
2023/01/13 02:48:41;;;;;;;18.10;6.30;;;;;;;;;;105051;1259;60538;-44
2023/01/13 02:51:09;;;;;;;23.50;6.00;;;;;;;;;;105234;1260;60467;-43
2023/01/13 02:53:37;;;;;;;21.40;6.80;;;;;;;;;;105197;1266;63378;-47
2023/01/13 02:56:04;;;;;;;27.40;8.10;;;;;;;;;;105319;1259;60460;-46
2023/01/13 02:58:31;;;;;;;16.70;6.10;;;;;;;;;;105297;1260;60539;-45
2023/01/13 03:00:58;;;;;;;19.50;6.60;;;;;;;;;;105506;1254;60580;-46
2023/01/13 03:03:25;;;;;;;21.80;7.20;;;;;;;;;;105188;1256;60475;-44
2023/01/13 03:05:53;;;;;;;26.60;7.00;;;;;;;;;;105205;1256;62378;-46
2023/01/13 03:08:19;;;;;;;17.20;6.30;;;;;;;;;;105437;1260;60495;-45
2023/01/13 03:11:06;;;;;;;22.60;5.70;;;;;;;;;;105177;1257;60777;-44
2023/01/13 03:13:52;;;;;;;20.60;6.00;;;;;;;;;;105620;1259;60590;-43
2023/01/13 03:16:24;;;;;;;20.00;6.10;;;;;;;;;;105109;1258;60312;-46
2023/01/13 03:18:51;;;;;;;18.60;5.80;;;;;;;;;;105217;1257;63267;-44
2023/01/13 03:21:26;;;;;;;15.50;5.40;;;;;;;;;;105141;1260;60450;-46
2023/01/13 03:23:56;;;;;;;23.00;6.90;;;;;;;;;;104962;1260;62206;-48
2023/01/13 03:26:42;;;;;;;21.90;6.40;;;;;;;;;;105201;1260;60546;-46
2023/01/13 03:29:22;;;;;;;19.20;7.40;;;;;;;;;;105229;1259;60525;-47
2023/01/13 03:31:59;;;;;;;20.20;6.90;;;;;;;;;;105252;1260;63415;-44
2023/01/13 03:34:29;;;;;;;21.80;7.80;;;;;;;;;;105018;1254;60990;-44
2023/01/13 03:36:56;;;;;;;29.10;9.10;;;;;;;;;;105352;1260;61682;-45
2023/01/13 03:39:31;;;;;;;30.40;9.60;;;;;;;;;;104973;1260;60439;-47
2023/01/13 03:41:58;;;;;;;22.80;7.80;;;;;;;;;;106136;1259;60482;-41
2023/01/13 03:44:30;;;;;;;23.80;9.10;;;;;;;;;;105126;1257;63503;-44
2023/01/13 03:47:17;;;;;;;24.00;9.10;;;;;;;;;;105534;1260;60404;-47
2023/01/13 03:49:47;;;;;;;28.80;9.20;;;;;;;;;;105229;1256;60847;-45
2023/01/13 03:52:18;;;;;;;26.80;9.00;;;;;;;;;;105093;1259;60437;-48
2023/01/13 03:54:47;;;;;;;23.30;9.40;;;;;;;;;;105175;1262;60544;-44
2023/01/13 03:57:14;;;;;;;23.50;9.20;;;;;;;;;;105222;1256;62215;-47
2023/01/13 03:59:41;;;;;;;28.10;9.10;;;;;;;;;;105245;1259;60459;-45
2023/01/13 04:02:09;;;;;;;18.20;8.00;;;;;;;;;;105021;1254;61788;-45
2023/01/13 04:04:46;;;;;;;27.60;9.30;;;;;;;;;;105110;1259;60345;-46
2023/01/13 04:07:32;;;;;;;19.50;7.00;;;;;;;;;;105408;1255;60750;-45
2023/01/13 04:09:59;;;;;;;31.90;9.00;;;;;;;;;;105194;1260;64558;-47
2023/01/13 04:13:11;;;;;;;23.40;8.00;;;;;;;;;;105049;1260;60433;-45
2023/01/13 04:15:19;;;;;;;25.10;10.30;;;;;;;;;;105203;1259;61525;-44
2023/01/13 04:17:46;;;;;;;24.70;7.40;;;;;;;;;;105285;1258;60539;-48
2023/01/13 04:20:13;;;;;;;28.50;8.10;;;;;;;;;;105190;1260;60390;-47
2023/01/13 04:22:40;;;;;;;30.50;10.20;;;;;;;;;;106067;1257;61947;-43
2023/01/13 04:25:07;;;;;;;34.60;9.50;;;;;;;;;;105098;1259;61524;-46
2023/01/13 04:27:33;;;;;;;22.50;8.50;;;;;;;;;;105461;1255;61750;-44
2023/01/13 04:30:00;;;;;;;29.80;10.30;;;;;;;;;;105247;1259;61177;-45
2023/01/13 04:32:27;;;;;;;24.60;8.80;;;;;;;;;;105212;1259;60556;-45
2023/01/13 04:34:53;;;;;;;32.20;9.10;;;;;;;;;;105218;1258;63228;-47
2023/01/13 04:37:20;;;;;;;28.30;9.00;;;;;;;;;;105280;1260;60546;-43
2023/01/13 04:39:46;;;;;;;16.90;7.10;;;;;;;;;;105267;1259;61659;-46
2023/01/13 04:42:13;;;;;;;25.00;7.80;;;;;;;;;;105278;1257;60507;-44
2023/01/13 04:44:40;;;;;;;22.70;7.30;;;;;;;;;;105259;1259;60370;-45
2023/01/13 04:47:06;;;;;;;28.80;8.20;;;;;;;;;;105226;1259;61901;-45
2023/01/13 04:49:33;;;;;;;23.80;8.80;;;;;;;;;;105302;1259;60690;-46
2023/01/13 04:52:02;;;;;;;18.80;7.40;;;;;;;;;;105048;1258;61835;-43
2023/01/13 04:54:29;;;;;;;27.40;9.20;;;;;;;;;;105106;1259;60520;-45
2023/01/13 04:56:55;;;;;;;24.60;9.00;;;;;;;;;;105218;1260;60523;-46
2023/01/13 04:59:22;;;;;;;17.30;7.50;;;;;;;;;;105245;1260;62209;-44
2023/01/13 05:01:49;;;;;;;27.60;8.90;;;;;;;;;;104892;1254;60356;-44
2023/01/13 05:04:16;;;;;;;23.50;8.40;;;;;;;;;;105281;1260;61891;-46
2023/01/13 05:06:42;;;;;;;34.30;11.30;;;;;;;;;;105182;1260;60719;-47
2023/01/13 05:09:10;;;;;;;21.20;9.40;;;;;;;;;;105287;1254;60462;-45
2023/01/13 05:17:08;;;;;;;20.20;9.10;;;;;;;;;;105101;1260;61716;-45
2023/01/13 05:19:35;;;;;;;29.00;9.50;;;;;;;;;;105120;1254;60388;-44
2023/01/13 05:27:33;;;;;;;22.60;7.30;;;;;;;;;;105184;1254;60821;-45
2023/01/13 05:30:00;;;;;;;22.40;7.60;;;;;;;;;;105121;1257;61910;-44
2023/01/13 05:32:29;;;;;;;20.00;7.20;;;;;;;;;;105051;1254;60386;-44
2023/01/13 05:34:56;;;;;;;19.70;7.60;;;;;;;;;;105313;1254;60416;-45
2023/01/13 05:37:23;;;;;;;24.60;7.60;;;;;;;;;;105261;1255;63260;-47
2023/01/13 05:45:20;;;;;;;22.80;8.00;;;;;;;;;;105114;1254;60512;-43
2023/01/13 05:47:47;;;;;;;17.60;7.70;;;;;;;;;;105193;1260;60450;-43
2023/01/13 05:50:14;;;;;;;30.60;8.80;;;;;;;;;;105136;1260;62196;-46
2023/01/13 05:52:40;;;;;;;22.60;8.10;;;;;;;;;;105162;1259;60425;-45
2023/01/13 05:55:08;;;;;;;18.30;7.80;;;;;;;;;;104997;1257;60718;-45
2023/01/13 05:57:35;;;;;;;18.10;8.00;;;;;;;;;;104976;1254;60527;-45
2023/01/13 06:00:02;;;;;;;14.80;6.90;;;;;;;;;;104962;1258;60365;-47
2023/01/13 06:02:40;;;;;;;14.80;6.60;;;;;;;;;;104971;1260;62856;-47
2023/01/13 06:05:07;;;;;;;19.80;7.00;;;;;;;;;;105454;1258;60537;-44
2023/01/13 06:07:34;;;;;;;14.80;7.80;;;;;;;;;;105253;1259;60643;-49
2023/01/13 06:10:00;;;;;;;13.70;6.30;;;;;;;;;;105204;1258;61511;-45
2023/01/13 06:12:27;;;;;;;22.60;7.60;;;;;;;;;;104956;1260;60543;-46
2023/01/13 06:14:54;;;;;;;14.10;6.60;;;;;;;;;;105055;1261;63146;-46
2023/01/13 06:17:20;;;;;;;18.10;7.50;;;;;;;;;;105111;1254;60476;-46
2023/01/13 06:19:47;;;;;;;21.00;7.40;;;;;;;;;;105131;1260;60746;-45
2023/01/13 06:22:18;;;;;;;29.40;10.00;;;;;;;;;;104773;1263;60518;-47
2023/01/13 06:24:45;;;;;;;21.20;7.70;;;;;;;;;;104932;1257;60498;-47
2023/01/13 06:27:11;;;;;;;22.90;8.70;;;;;;;;;;105089;1258;62277;-47
2023/01/13 06:29:38;;;;;;;17.50;7.00;;;;;;;;;;105061;1261;61239;-45
2023/01/13 06:32:06;;;;;;;17.90;6.60;;;;;;;;;;105049;1263;60900;-45
2023/01/13 06:34:33;;;;;;;20.80;8.30;;;;;;;;;;105303;1256;60571;-44
2023/01/13 06:37:00;;;;;;;22.10;7.20;;;;;;;;;;105031;1260;60405;-44
2023/01/13 06:39:29;;;;;;;18.00;7.60;;;;;;;;;;104699;1257;62303;-46
2023/01/13 06:44:42;;;;;;;15.90;8.10;;;;;;;;;;105083;1260;62019;-46
2023/01/13 06:49:50;;;;;;;21.70;10.30;;;;;;;;;;103948;1289;600407;-75
2023/01/13 06:52:16;;;;;;;28.40;9.50;;;;;;;;;;105841;1267;58855;-75
2023/01/13 06:54:43;;;;;;;21.60;8.90;;;;;;;;;;106141;1266;58902;-74
2023/01/13 06:57:10;;;;;;;26.10;9.40;;;;;;;;;;105493;1265;61533;-74
2023/01/13 06:59:37;;;;;;;25.50;9.90;;;;;;;;;;105714;1263;58998;-75
2023/01/13 07:02:03;;;;;;;24.90;11.50;;;;;;;;;;105785;1265;60824;-75
2023/01/13 07:04:30;;;;;;;19.30;8.20;;;;;;;;;;105950;1266;171079;-75
2023/01/13 07:06:57;;;;;;;29.00;10.10;;;;;;;;;;106029;1260;59112;-74
2023/01/13 07:09:24;;;;;;;26.80;9.00;;;;;;;;;;105919;1260;61424;-75
2023/01/13 07:11:51;;;;;;;20.10;9.50;;;;;;;;;;106090;1260;58991;-74
2023/01/13 07:17:03;;;;;;;24.30;9.50;;;;;;;;;;106041;1260;59666;-75
2023/01/13 07:19:30;;;;;;;25.80;10.20;;;;;;;;;;105983;1266;59635;-75
2023/01/13 07:21:57;;;;;;;23.10;9.50;;;;;;;;;;105982;1259;62308;-75
2023/01/13 07:24:24;;;;;;;23.40;10.30;;;;;;;;;;105722;1260;59680;-74
2023/01/13 07:26:51;;;;;;;24.50;10.20;;;;;;;;;;106385;1262;61881;-74
2023/01/13 07:29:18;;;;;;;25.60;11.10;;;;;;;;;;106168;1254;59729;-74
2023/01/13 07:31:45;;;;;;;23.90;10.40;;;;;;;;;;106139;1256;60314;-75
2023/01/13 07:34:15;;;;;;;28.50;13.00;;;;;;;;;;106197;1259;62407;-75
2023/01/13 07:36:45;;;;;;;22.70;10.70;;;;;;;;;;105977;1254;59820;-76
2023/01/13 07:39:12;;;;;;;30.60;12.90;;;;;;;;;;106033;1257;60410;-75
2023/01/13 07:44:24;;;;;;;28.80;12.70;;;;;;;;;;106240;1254;59683;-74
2023/01/13 07:46:51;;;;;;;27.40;11.00;;;;;;;;;;106214;1256;62596;-75
2023/01/13 07:49:18;;;;;;;27.30;12.10;;;;;;;;;;106288;1259;59785;-75
2023/01/13 07:51:45;;;;;;;27.50;11.90;;;;;;;;;;106146;1254;62120;-74
2023/01/13 07:54:12;;;;;;;30.50;12.00;;;;;;;;;;106212;1260;59695;-75
2023/01/13 07:56:38;;;;;;;29.00;11.50;;;;;;;;;;106273;1254;59695;-76
2023/01/13 07:59:05;;;;;;;27.60;11.20;;;;;;;;;;106301;1256;62282;-75
2023/01/13 08:01:32;;;;;;;26.30;11.20;;;;;;;;;;106166;1254;59692;-76
2023/01/13 08:03:59;;;;;;;32.60;13.40;;;;;;;;;;106280;1260;61570;-75
2023/01/13 08:06:25;;;;;;;29.70;11.20;;;;;;;;;;106383;1254;59743;-74
2023/01/13 08:08:52;;;;;;;23.90;10.40;;;;;;;;;;106310;1259;59740;-76
2023/01/13 08:11:19;;;;;;;26.90;13.30;;;;;;;;;;106213;1254;62194;-75
2023/01/13 08:13:48;;;;;;;26.90;12.90;;;;;;;;;;106341;1259;59753;-75
2023/01/13 08:16:15;;;;;;;33.10;14.00;;;;;;;;;;105967;1254;61800;-73
2023/01/13 08:18:42;;;;;;;28.00;11.90;;;;;;;;;;106383;1255;60009;-75
2023/01/13 08:21:10;;;;;;;29.40;13.00;;;;;;;;;;106270;1257;59637;-74
2023/01/13 08:23:37;;;;;;;23.20;10.50;;;;;;;;;;106153;1254;61755;-74
2023/01/13 08:26:04;;;;;;;29.90;12.50;;;;;;;;;;106330;1254;59580;-75
2023/01/13 08:28:31;;;;;;;23.60;10.90;;;;;;;;;;106453;1254;62314;-75
2023/01/13 08:31:02;;;;;;;23.10;11.10;;;;;;;;;;106149;1259;59746;-74
2023/01/13 08:33:29;;;;;;;29.40;10.40;;;;;;;;;;106188;1254;59753;-75
2023/01/13 08:35:56;;;;;;;28.20;11.10;;;;;;;;;;106238;1255;61541;-73
2023/01/13 08:38:23;;;;;;;21.90;10.00;;;;;;;;;;106146;1254;59637;-74
2023/01/13 08:40:50;;;;;;;21.00;9.80;;;;;;;;;;106262;1254;62181;-75
2023/01/13 08:43:16;;;;;;;21.60;8.70;;;;;;;;;;106189;1254;59618;-76
2023/01/13 08:45:43;;;;;;;18.10;7.80;;;;;;;;;;106256;1259;59590;-75
2023/01/13 08:48:10;;;;;;;15.80;7.30;;;;;;;;;;106203;1260;62562;-76
2023/01/13 08:50:37;;;;;;;19.10;9.10;;;;;;;;;;106320;1254;59682;-78
2023/01/13 08:53:06;;;;;;;20.10;7.90;;;;;;;;;;106151;1257;61880;-78
2023/01/13 08:55:32;;;;;;;16.20;7.40;;;;;;;;;;106154;1254;59695;-78
2023/01/13 08:57:59;;;;;;;20.20;8.50;;;;;;;;;;106308;1259;59514;-77
2023/01/13 09:00:41;;;;;;;18.00;7.20;;;;;;;;;;106225;1257;62582;-78
2023/01/13 09:03:07;;;;;;;16.90;6.80;;;;;;;;;;106361;1259;59571;-78
2023/01/13 09:05:34;;;;;;;15.30;8.20;;;;;;;;;;106347;1258;62951;-78
2023/01/13 09:08:01;;;;;;;14.20;5.90;;;;;;;;;;106437;1254;59640;-79
2023/01/13 09:10:28;;;;;;;15.30;7.40;;;;;;;;;;106327;1254;59596;-79
2023/01/13 09:13:13;;;;;;;14.60;7.30;;;;;;;;;;106350;1254;61075;-78
2023/01/13 09:15:40;;;;;;;16.60;8.10;;;;;;;;;;106272;1254;59722;-79
2023/01/13 09:18:07;;;;;;;11.90;6.50;;;;;;;;;;106247;1255;61772;-79
2023/01/13 09:20:34;;;;;;;13.40;6.60;;;;;;;;;;106305;1257;59695;-79
2023/01/13 09:24:09;;;;;;;11.50;6.40;;;;;;;;;;101713;1292;600649;-45
2023/01/13 09:26:36;;;;;;;13.70;6.20;;;;;;;;;;104063;1266;59029;-45
2023/01/13 09:29:03;;;;;;;16.60;6.20;;;;;;;;;;103887;1267;59129;-46
2023/01/13 09:31:33;;;;;;;10.40;5.50;;;;;;;;;;105217;1266;61775;-45
2023/01/13 09:36:46;;;;;;;9.90;5.60;;;;;;;;;;104372;1273;136992;-48
2023/01/13 09:39:13;;;;;;;12.80;6.10;;;;;;;;;;104426;1264;59171;-46
2023/01/13 09:44:50;;;;;;;14.10;6.20;;;;;;;;;;104487;1263;60620;-47
2023/01/13 09:47:22;;;;;;;9.70;5.80;;;;;;;;;;104528;1263;59029;-48
2023/01/13 09:49:48;;;;;;;19.40;6.20;;;;;;;;;;104520;1266;60908;-45
2023/01/13 09:52:19;;;;;;;7.00;4.60;;;;;;;;;;104563;1263;59740;-46
2023/01/13 09:55:01;;;;;;;8.60;4.40;;;;;;;;;;104644;1267;59573;-46
2023/01/13 09:57:29;;;;;;;12.00;4.60;;;;;;;;;;104848;1261;62489;-44
2023/01/13 09:59:56;;;;;;;8.30;4.00;;;;;;;;;;105497;1260;59731;-48
2023/01/13 10:02:29;;;;;;;8.90;5.40;;;;;;;;;;104729;1262;60637;-45
2023/01/13 10:05:03;;;;;;;10.00;4.80;;;;;;;;;;104596;1260;60027;-45
2023/01/13 10:07:30;;;;;;;;;;;;;;;;;;107926;1265;57714;-46
2023/01/13 10:09:57;;;;;;;7.40;3.40;;;;;;;;;;104645;1266;62348;-41
2023/01/13 10:14:41;;;;;;;6.20;4.00;;;;;;;;;;104308;1295;601147;-81
2023/01/13 10:17:17;;;;;;;6.90;3.90;;;;;;;;;;104419;1270;59471;-46
2023/01/13 10:19:49;;;;;;;9.60;5.20;;;;;;;;;;105232;1273;59540;-47
2023/01/13 10:22:34;;;;;;;7.10;3.70;;;;;;;;;;104492;1273;60477;-46
2023/01/13 10:25:11;;;;;;;8.10;4.10;;;;;;;;;;104456;1275;59001;-46
2023/01/13 10:27:38;;;;;;;7.90;4.50;;;;;;;;;;104346;1272;97592;-43
2023/01/13 10:30:20;;;;;;;6.80;4.00;;;;;;;;;;104735;1269;58921;-47
2023/01/13 10:32:51;;;;;;;6.70;4.00;;;;;;;;;;104870;1266;59499;-45
2023/01/13 10:35:38;;;;;;;6.70;4.20;;;;;;;;;;104304;1268;60666;-47
2023/01/13 10:38:09;;;;;;;6.90;3.40;;;;;;;;;;104485;1263;58921;-48
2023/01/13 10:40:37;;;;;;;6.50;4.40;;;;;;;;;;106739;1263;60886;-48
2023/01/13 10:43:05;;;;;;;5.70;3.90;;;;;;;;;;104687;1263;59635;-46
2023/01/13 10:45:32;;;;;;;5.80;3.60;;;;;;;;;;105510;1267;59635;-46
2023/01/13 10:48:03;;;;;;;6.70;4.60;;;;;;;;;;104891;1263;62312;-47
2023/01/13 10:50:30;;;;;;;4.50;3.70;;;;;;;;;;104803;1269;61232;-46
2023/01/13 10:53:00;;;;;;;7.00;4.70;;;;;;;;;;105007;1269;60806;-47
2023/01/13 10:55:35;;;;;;;8.10;4.20;;;;;;;;;;104864;1263;59727;-45
2023/01/13 10:58:10;;;;;;;7.10;4.10;;;;;;;;;;104864;1269;59541;-48
2023/01/13 11:00:36;;;;;;;6.80;3.50;;;;;;;;;;104857;1268;62529;-47
2023/01/13 11:03:14;;;;;;;9.90;4.10;;;;;;;;;;104989;1268;59768;-47
2023/01/13 11:05:46;;;;;;;8.10;5.50;;;;;;;;;;104859;1263;60809;-47
2023/01/13 11:08:16;;;;;;;6.00;3.50;;;;;;;;;;105758;1263;59532;-47
2023/01/13 11:10:44;;;;;;;7.90;4.70;;;;;;;;;;104756;1265;59623;-47
2023/01/13 11:13:14;;;;;;;9.00;4.60;;;;;;;;;;105024;1263;61366;-47
2023/01/13 11:15:41;;;;;;;11.40;4.80;;;;;;;;;;104862;1269;59673;-48
2023/01/13 11:18:18;;;;;;;9.60;5.30;;;;;;;;;;104363;1269;61603;-47
2023/01/13 11:20:45;;;;;;;10.30;6.90;;;;;;;;;;104495;1268;59616;-47
2023/01/13 11:23:14;;;;;;;10.80;5.10;;;;;;;;;;104321;1264;59720;-48
2023/01/13 11:25:42;;;;;;;11.50;5.60;;;;;;;;;;104354;1264;62616;-47
2023/01/13 11:28:17;;;;;;;9.30;5.70;;;;;;;;;;104770;1267;59384;-46
2023/01/13 11:31:03;;;;;;;11.30;6.20;;;;;;;;;;105020;1267;60922;-46
2023/01/13 11:33:34;;;;;;;9.90;5.50;;;;;;;;;;104642;1267;59869;-46
2023/01/13 11:36:03;;;;;;;12.10;5.40;;;;;;;;;;104567;1268;59678;-49
2023/01/13 11:38:33;;;;;;;9.10;4.90;;;;;;;;;;105501;1263;62118;-47
2023/01/13 11:41:01;;;;;;;9.10;5.10;;;;;;;;;;104281;1266;59689;-49
2023/01/13 11:43:31;;;;;;;12.10;6.20;;;;;;;;;;104597;1268;63161;-48
2023/01/13 11:45:58;;;;;;;9.10;5.50;;;;;;;;;;104534;1267;59730;-48
2023/01/13 11:48:28;;;;;;;10.10;6.40;;;;;;;;;;104274;1264;59711;-48
2023/01/13 11:51:03;;;;;;;9.80;5.30;;;;;;;;;;104371;1263;62490;-47
2023/01/13 11:53:30;;;;;;;;;;;;;;;;;;104243;1263;59787;-48
2023/01/13 11:55:56;;;;;;;9.90;4.70;;;;;;;;;;104246;1266;61728;-45
2023/01/13 11:58:35;;;;;;;10.50;6.00;;;;;;;;;;104337;1268;59632;-49
2023/01/13 12:01:36;;;;;;;13.50;6.10;;;;;;;;;;104425;1263;59714;-48
2023/01/13 12:04:09;;;;;;;10.70;5.80;;;;;;;;;;103937;1268;62237;-47
2023/01/13 12:06:39;;;;;;;13.30;6.00;;;;;;;;;;104540;1269;59797;-48
2023/01/13 12:09:11;;;;;;;13.40;6.10;;;;;;;;;;104112;1263;60711;-48
2023/01/13 12:14:39;;;;;;;9.80;5.60;;;;;;;;;;104781;1260;59640;-47
2023/01/13 12:17:07;;;;;;;12.00;7.70;;;;;;;;;;104494;1261;61487;-47
2023/01/13 12:19:34;;;;;;;13.80;7.60;;;;;;;;;;104497;1265;59793;-48
2023/01/13 12:22:10;;;;;;;11.60;8.00;;;;;;;;;;104443;1263;60553;-47
2023/01/13 12:24:44;;;;;;;11.10;6.80;;;;;;;;;;104447;1267;59890;-49
2023/01/13 12:27:11;;;;;;;16.30;6.60;;;;;;;;;;104316;1259;59643;-48
2023/01/13 12:29:38;;;;;;;15.00;7.60;;;;;;;;;;104701;1265;62696;-48
2023/01/13 12:32:07;;;;;;;12.70;6.50;;;;;;;;;;104529;1265;59637;-46
2023/01/13 12:34:56;;;;;;;11.20;6.80;;;;;;;;;;104446;1262;61925;-48
2023/01/13 12:37:28;;;;;;;11.20;6.90;;;;;;;;;;104341;1265;59768;-48
2023/01/13 12:39:57;;;;;;;13.80;7.10;;;;;;;;;;105181;1265;59766;-47
2023/01/13 12:45:23;;;;;;;16.70;8.00;;;;;;;;;;104512;1261;59685;-46
2023/01/13 12:47:50;;;;;;;11.20;6.80;;;;;;;;;;104818;1269;60896;-46
2023/01/13 12:50:23;;;;;;;16.40;9.00;;;;;;;;;;104825;1260;59756;-49
2023/01/13 12:52:52;;;;;;;16.10;9.30;;;;;;;;;;104937;1268;59618;-48
2023/01/13 12:55:20;;;;;;;15.30;8.10;;;;;;;;;;105007;1265;61179;-47
2023/01/13 12:58:05;;;;;;;14.00;7.50;;;;;;;;;;104758;1260;59729;-48
2023/01/13 13:00:41;;;;;;;14.10;7.50;;;;;;;;;;104744;1260;62110;-46
2023/01/13 13:03:13;;;;;;;14.00;7.60;;;;;;;;;;104761;1267;59913;-49
2023/01/13 13:05:54;;;;;;;16.70;9.00;;;;;;;;;;104715;1264;59786;-49
2023/01/13 13:08:31;;;;;;;16.00;7.50;;;;;;;;;;105015;1268;61376;-48
2023/01/13 13:11:00;;;;;;;17.10;8.10;;;;;;;;;;104535;1265;59621;-48
2023/01/13 13:13:46;;;;;;;12.30;7.10;;;;;;;;;;106090;1260;61601;-47
2023/01/13 13:16:25;;;;;;;14.10;8.60;;;;;;;;;;105082;1269;59752;-47
2023/01/13 13:18:52;;;;;;;10.00;6.80;;;;;;;;;;105692;1266;59548;-46
2023/01/13 13:21:19;;;;;;;14.10;7.30;;;;;;;;;;105410;1263;61042;-47
2023/01/13 13:23:51;;;;;;;15.20;8.90;;;;;;;;;;105086;1267;60097;-48
2023/01/13 13:26:23;;;;;;;15.50;8.10;;;;;;;;;;105212;1264;61340;-47
2023/01/13 13:29:05;;;;;;;17.80;8.90;;;;;;;;;;105255;1261;60536;-46
2023/01/13 13:31:41;;;;;;;17.80;7.40;;;;;;;;;;105035;1263;59615;-47
2023/01/13 13:34:27;;;;;;;11.60;7.20;;;;;;;;;;105118;1261;61573;-48
2023/01/13 13:37:03;;;;;;;13.50;7.60;;;;;;;;;;105078;1265;59729;-46
2023/01/13 13:47:46;;;;;;;14.80;7.60;;;;;;;;;;105039;1260;62490;-47
2023/01/13 13:50:14;;;;;;;17.80;8.50;;;;;;;;;;105072;1261;59727;-45
2023/01/13 13:52:50;;;;;;;20.10;10.80;;;;;;;;;;105143;1263;61458;-46
2023/01/13 13:55:18;;;;;;;17.40;10.30;;;;;;;;;;105244;1264;59769;-47
2023/01/13 13:57:54;;;;;;;16.80;10.00;;;;;;;;;;105141;1265;59618;-46
2023/01/13 14:00:32;;;;;;;15.70;9.00;;;;;;;;;;105270;1266;61736;-44
2023/01/13 14:03:00;;;;;;;14.80;8.10;;;;;;;;;;105198;1263;59759;-44
2023/01/13 14:05:31;;;;;;;13.80;8.10;;;;;;;;;;105457;1264;61868;-46
2023/01/13 14:08:14;;;;;;;24.20;8.70;;;;;;;;;;105220;1260;59924;-45
2023/01/13 14:10:42;;;;;;;19.10;8.40;;;;;;;;;;105174;1271;59700;-46
2023/01/13 14:13:13;;;;;;;16.00;8.60;;;;;;;;;;105300;1261;62416;-47
2023/01/13 14:15:40;;;;;;;12.80;7.60;;;;;;;;;;105285;1260;59855;-47
2023/01/13 14:18:11;;;;;;;12.60;6.80;;;;;;;;;;105878;1263;61501;-44
2023/01/13 14:20:38;;;;;;;13.10;7.70;;;;;;;;;;104217;1261;59767;-45
2023/01/13 14:23:04;;;;;;;13.50;7.90;;;;;;;;;;104710;1261;59641;-47
2023/01/13 14:25:38;;;;;;;19.60;9.50;;;;;;;;;;104664;1265;61443;-46
2023/01/13 14:28:17;;;;;;;16.10;9.50;;;;;;;;;;105147;1263;59626;-46
2023/01/13 14:30:44;;;;;;;16.50;9.90;;;;;;;;;;104678;1266;60649;-47
2023/01/13 14:33:14;;;;;;;16.30;8.90;;;;;;;;;;106278;1266;60702;-46
2023/01/13 14:36:00;;;;;;;17.70;9.70;;;;;;;;;;104929;1264;60597;-48
2023/01/13 14:38:27;;;;;;;16.20;9.20;;;;;;;;;;104714;1264;61959;-46
2023/01/13 14:40:53;;;;;;;16.80;9.30;;;;;;;;;;104889;1264;60449;-46
2023/01/13 14:43:21;;;;;;;19.10;10.00;;;;;;;;;;104589;1261;62483;-45
2023/01/13 14:46:06;;;;;;;19.80;10.70;;;;;;;;;;106313;1260;59500;-46
2023/01/13 14:48:36;;;;;;;13.20;8.00;;;;;;;;;;104819;1258;61382;-48
2023/01/13 14:51:04;;;;;;;16.90;8.30;;;;;;;;;;104902;1264;61926;-49
2023/01/13 14:53:42;;;;;;;15.90;8.40;;;;;;;;;;105524;1261;60550;-48
2023/01/13 14:56:28;;;;;;;14.20;7.60;;;;;;;;;;105192;1263;60976;-48
2023/01/13 14:59:00;;;;;;;11.00;6.80;;;;;;;;;;104766;1261;60405;-46
2023/01/13 15:01:28;;;;;;;13.70;8.10;;;;;;;;;;105212;1260;60680;-49
2023/01/13 15:04:14;;;;;;;12.00;8.20;;;;;;;;;;104973;1264;62963;-47
2023/01/13 15:06:44;;;;;;;17.80;10.50;;;;;;;;;;104942;1258;60565;-47
2023/01/13 15:09:16;;;;;;;11.50;7.50;;;;;;;;;;104892;1267;61974;-46
2023/01/13 15:11:43;;;;;;;16.00;9.30;;;;;;;;;;104854;1261;60593;-47
2023/01/13 15:14:09;;;;;;;17.40;9.90;;;;;;;;;;105010;1263;60982;-48
2023/01/13 15:16:36;;;;;;;16.70;9.70;;;;;;;;;;104901;1260;61808;-47
2023/01/13 15:19:03;;;;;;;18.60;10.30;;;;;;;;;;105004;1263;60539;-46
2023/01/13 15:21:29;;;;;;;19.30;10.10;;;;;;;;;;104884;1264;62194;-49
2023/01/13 15:23:56;;;;;;;17.50;9.80;;;;;;;;;;105045;1265;60542;-47
2023/01/13 15:26:24;;;;;;;17.30;9.20;;;;;;;;;;104788;1267;60624;-48
2023/01/13 15:28:51;;;;;;;13.90;9.50;;;;;;;;;;105267;1258;61922;-47
2023/01/13 15:31:17;;;;;;;16.80;8.70;;;;;;;;;;105080;1266;62219;-47
2023/01/13 15:33:44;;;;;;;14.00;7.80;;;;;;;;;;105196;1263;63647;-47
2023/01/13 15:36:23;;;;;;;18.40;8.20;;;;;;;;;;104917;1269;60626;-45